Time;durP1;ratioP1;P1;durP2;ratioP2;P2;SDS_P1;SDS_P2;PMS_P1;PMS_P2;Temp;Humidity;BMP_temperature;BMP_pressure;BME280_temperature;BME280_humidity;BME280_pressure;Samples;Min_cycle;Max_cycle;Signal;HPM_P1;HPM_P2
2022/03/01 00:01:24;;;;;;;;;68.25;53.75;;;;;;;;5121482;27;45421;-77
2022/03/01 00:03:50;;;;;;;;;64.50;53.50;;;;;;;;5121892;27;45312;-77
2022/03/01 00:06:15;;;;;;;;;60.25;51.25;;;;;;;;5120533;27;45411;-77
2022/03/01 00:08:40;;;;;;;;;66.00;53.50;;;;;;;;5121917;27;45517;-74
2022/03/01 00:11:05;;;;;;;;;56.25;47.00;;;;;;;;5120294;27;45798;-75
2022/03/01 00:13:31;;;;;;;;;63.75;52.00;;;;;;;;5119982;27;48216;-76
2022/03/01 00:15:56;;;;;;;;;65.75;50.75;;;;;;;;5121290;27;45349;-77
2022/03/01 00:18:21;;;;;;;;;62.00;50.75;;;;;;;;5131888;27;45332;-77
2022/03/01 00:20:46;;;;;;;;;59.25;47.00;;;;;;;;5141025;27;45918;-77
2022/03/01 00:23:11;;;;;;;;;58.00;47.75;;;;;;;;5142333;27;45372;-77
2022/03/01 00:25:37;;;;;;;;;64.25;50.50;;;;;;;;5140897;27;45885;-77
2022/03/01 00:28:02;;;;;;;;;62.50;52.25;;;;;;;;5140928;27;45397;-76
2022/03/01 00:30:27;;;;;;;;;66.50;54.75;;;;;;;;5142034;27;45328;-77
2022/03/01 00:32:53;;;;;;;;;53.50;43.50;;;;;;;;5142098;27;45407;-76
2022/03/01 00:35:18;;;;;;;;;60.00;50.50;;;;;;;;5140469;27;45425;-76
2022/03/01 00:37:43;;;;;;;;;62.00;51.25;;;;;;;;5142354;27;45435;-76
2022/03/01 00:40:09;;;;;;;;;66.75;54.00;;;;;;;;5141812;27;45212;-76
2022/03/01 00:42:34;;;;;;;;;68.50;55.25;;;;;;;;5140596;27;47579;-76
2022/03/01 00:44:59;;;;;;;;;67.00;52.00;;;;;;;;5142021;27;45366;-77
2022/03/01 00:47:24;;;;;;;;;68.75;55.00;;;;;;;;5140605;27;45336;-76
2022/03/01 00:49:50;;;;;;;;;63.00;51.75;;;;;;;;5140596;27;46426;-76
2022/03/01 00:52:15;;;;;;;;;65.50;53.50;;;;;;;;5140563;27;47042;-76
2022/03/01 00:54:40;;;;;;;;;68.50;54.50;;;;;;;;5140317;27;45218;-76
2022/03/01 00:57:05;;;;;;;;;72.25;57.00;;;;;;;;5142120;27;45488;-74
2022/03/01 00:59:31;;;;;;;;;69.75;56.50;;;;;;;;5141212;27;45363;-74
2022/03/01 01:01:56;;;;;;;;;72.75;56.75;;;;;;;;5141552;27;46594;-77
2022/03/01 01:04:21;;;;;;;;;65.75;53.50;;;;;;;;5141747;27;45289;-76
2022/03/01 01:06:46;;;;;;;;;70.00;56.75;;;;;;;;5141928;27;45265;-76
2022/03/01 01:09:14;;;;;;;;;68.25;54.75;;;;;;;;5140220;27;46081;-77
2022/03/01 01:11:39;;;;;;;;;68.25;57.00;;;;;;;;5140134;27;47298;-76
2022/03/01 01:14:04;;;;;;;;;66.50;54.75;;;;;;;;5141771;27;45389;-76
2022/03/01 01:16:29;;;;;;;;;68.00;55.00;;;;;;;;5140076;27;45603;-76
2022/03/01 01:18:55;;;;;;;;;65.25;54.00;;;;;;;;5124575;27;46762;-77
2022/03/01 01:21:21;;;;;;;;;67.00;53.50;;;;;;;;5119382;27;47089;-77
2022/03/01 01:23:46;;;;;;;;;66.75;54.75;;;;;;;;5120584;27;45356;-76
2022/03/01 01:26:12;;;;;;;;;63.25;51.00;;;;;;;;5120213;27;45325;-76
2022/03/01 01:28:37;;;;;;;;;69.25;54.25;;;;;;;;5118889;27;47062;-77
2022/03/01 01:31:02;;;;;;;;;51.00;41.75;;;;;;;;5120181;27;46456;-76
2022/03/01 01:33:27;;;;;;;;;61.00;50.00;;;;;;;;5119158;27;45319;-77
2022/03/01 01:35:53;;;;;;;;;61.00;50.00;;;;;;;;5119486;27;45374;-76
2022/03/01 01:38:18;;;;;;;;;69.50;55.75;;;;;;;;5120496;27;45327;-76
2022/03/01 01:40:43;;;;;;;;;68.50;55.25;;;;;;;;5118981;27;47046;-76
2022/03/01 01:43:08;;;;;;;;;70.25;55.50;;;;;;;;5120498;27;45726;-76
2022/03/01 01:45:34;;;;;;;;;66.00;54.00;;;;;;;;5118957;27;45372;-74
2022/03/01 01:48:00;;;;;;;;;68.00;51.25;;;;;;;;5118280;27;47374;-76
2022/03/01 01:50:25;;;;;;;;;65.00;51.75;;;;;;;;5120106;27;45292;-77
2022/03/01 01:52:51;;;;;;;;;67.50;55.00;;;;;;;;5118739;27;45234;-76
2022/03/01 01:55:17;;;;;;;;;63.25;49.00;;;;;;;;5118856;27;45290;-77
2022/03/01 01:57:43;;;;;;;;;62.00;49.50;;;;;;;;5118983;27;46856;-76
2022/03/01 02:00:10;;;;;;;;;63.75;50.75;;;;;;;;5119872;27;45819;-76
2022/03/01 02:02:35;;;;;;;;;61.50;50.50;;;;;;;;5118570;27;45468;-76
2022/03/01 02:05:02;;;;;;;;;60.00;48.25;;;;;;;;5120215;27;45368;-77
2022/03/01 02:07:27;;;;;;;;;61.75;51.25;;;;;;;;5120236;27;45486;-76
2022/03/01 02:09:52;;;;;;;;;55.50;46.00;;;;;;;;5118546;27;48152;-77
2022/03/01 02:12:18;;;;;;;;;63.25;53.50;;;;;;;;5123450;27;45377;-77
2022/03/01 02:14:44;;;;;;;;;57.25;49.00;;;;;;;;5123678;27;45291;-77
2022/03/01 02:17:09;;;;;;;;;64.00;51.50;;;;;;;;5123338;27;45478;-77
2022/03/01 02:19:35;;;;;;;;;58.25;48.00;;;;;;;;5144005;27;45354;-76
2022/03/01 02:22:00;;;;;;;;;57.00;48.50;;;;;;;;5142900;27;45498;-76
2022/03/01 02:24:27;;;;;;;;;59.75;46.00;;;;;;;;5142556;27;45409;-77
2022/03/01 02:27:00;;;;;;;;;60.50;51.00;;;;;;;;5142915;27;46998;-77
2022/03/01 02:29:25;;;;;;;;;62.25;49.00;;;;;;;;5143900;27;45458;-76
2022/03/01 02:31:51;;;;;;;;;62.50;50.25;;;;;;;;5144146;27;45350;-76
2022/03/01 02:34:17;;;;;;;;;61.00;50.50;;;;;;;;5142925;27;45277;-76
2022/03/01 02:36:43;;;;;;;;;61.50;51.50;;;;;;;;5144053;27;45271;-76
2022/03/01 02:39:08;;;;;;;;;59.75;50.75;;;;;;;;5143568;27;46252;-77
2022/03/01 02:41:37;;;;;;;;;59.00;46.25;;;;;;;;5142513;27;45922;-76
2022/03/01 02:44:02;;;;;;;;;59.00;47.75;;;;;;;;5142985;27;45426;-76
2022/03/01 02:46:27;;;;;;;;;59.00;48.75;;;;;;;;5143860;27;45290;-76
2022/03/01 02:48:52;;;;;;;;;63.75;51.00;;;;;;;;5143764;27;45475;-77
2022/03/01 02:51:17;;;;;;;;;57.25;47.00;;;;;;;;5142610;27;46271;-76
2022/03/01 02:53:43;;;;;;;;;59.00;47.75;;;;;;;;5143607;27;45450;-76
2022/03/01 02:56:08;;;;;;;;;60.25;49.75;;;;;;;;5141855;27;46413;-77
2022/03/01 02:58:33;;;;;;;;;65.25;52.50;;;;;;;;5142108;27;48124;-76
2022/03/01 03:00:58;;;;;;;;;60.00;49.75;;;;;;;;5142135;27;45284;-76
2022/03/01 03:03:23;;;;;;;;;59.75;49.50;;;;;;;;5142523;27;45326;-76
2022/03/01 03:05:49;;;;;;;;;61.25;50.00;;;;;;;;5143705;27;45239;-76
2022/03/01 03:08:14;;;;;;;;;48.00;42.75;;;;;;;;5143549;27;45280;-77
2022/03/01 03:10:39;;;;;;;;;64.50;52.50;;;;;;;;5142229;27;45864;-77
2022/03/01 03:13:05;;;;;;;;;61.75;50.00;;;;;;;;5141973;27;45835;-76
2022/03/01 03:15:30;;;;;;;;;68.00;54.50;;;;;;;;5143363;27;45450;-77
2022/03/01 03:17:56;;;;;;;;;54.00;46.25;;;;;;;;5135013;27;48380;-77
2022/03/01 03:20:22;;;;;;;;;55.25;46.00;;;;;;;;5122560;27;45261;-77
2022/03/01 03:22:47;;;;;;;;;60.50;51.00;;;;;;;;5122455;27;45326;-77
2022/03/01 03:25:13;;;;;;;;;63.75;52.25;;;;;;;;5122100;27;45328;-77
2022/03/01 03:27:38;;;;;;;;;62.00;51.50;;;;;;;;5122308;27;45521;-77
2022/03/01 03:30:04;;;;;;;;;63.00;51.50;;;;;;;;5121095;27;45225;-76
2022/03/01 03:32:30;;;;;;;;;57.75;48.00;;;;;;;;5122267;27;45450;-77
2022/03/01 03:34:55;;;;;;;;;57.25;48.50;;;;;;;;5122218;27;45442;-77
2022/03/01 03:37:20;;;;;;;;;64.25;52.75;;;;;;;;5122371;27;45390;-77
2022/03/01 03:39:46;;;;;;;;;57.50;48.75;;;;;;;;5122272;27;45364;-76
2022/03/01 03:42:11;;;;;;;;;59.75;49.75;;;;;;;;5121030;27;45423;-77
2022/03/01 03:44:38;;;;;;;;;64.00;50.50;;;;;;;;5120912;27;46164;-77
2022/03/01 03:47:03;;;;;;;;;68.00;53.75;;;;;;;;5122184;27;46581;-77
2022/03/01 03:49:28;;;;;;;;;63.00;50.00;;;;;;;;5122343;27;45356;-76
2022/03/01 03:51:55;;;;;;;;;65.25;53.00;;;;;;;;5122407;27;45330;-77
2022/03/01 03:54:20;;;;;;;;;66.50;52.75;;;;;;;;5121652;27;45215;-77
2022/03/01 03:56:45;;;;;;;;;65.75;53.00;;;;;;;;5121979;27;45323;-77
2022/03/01 03:59:11;;;;;;;;;61.25;50.50;;;;;;;;5120564;27;45554;-77
2022/03/01 04:01:36;;;;;;;;;63.50;51.50;;;;;;;;5120689;27;45375;-77
2022/03/01 04:04:01;;;;;;;;;63.75;51.25;;;;;;;;5121988;27;45197;-76
2022/03/01 04:06:27;;;;;;;;;62.50;51.00;;;;;;;;5120246;27;47055;-76
2022/03/01 04:08:53;;;;;;;;;58.25;50.25;;;;;;;;5122022;27;45309;-77
2022/03/01 04:11:18;;;;;;;;;59.75;48.25;;;;;;;;5121714;27;45439;-77
2022/03/01 04:13:43;;;;;;;;;65.75;51.25;;;;;;;;5120272;27;46151;-77
2022/03/01 04:16:08;;;;;;;;;55.50;47.25;;;;;;;;5119806;27;48322;-76
2022/03/01 04:18:33;;;;;;;;;68.50;55.25;;;;;;;;5133523;27;45340;-76
2022/03/01 04:20:59;;;;;;;;;61.25;50.25;;;;;;;;5142758;27;45340;-77
2022/03/01 04:23:24;;;;;;;;;63.50;49.00;;;;;;;;5142088;27;45265;-76
2022/03/01 04:25:49;;;;;;;;;63.75;52.50;;;;;;;;5142121;27;45533;-77
2022/03/01 04:28:14;;;;;;;;;66.75;52.75;;;;;;;;5140538;27;45357;-76
2022/03/01 04:30:40;;;;;;;;;68.50;54.00;;;;;;;;5141091;27;45553;-76
2022/03/01 04:33:05;;;;;;;;;62.00;50.50;;;;;;;;5141512;27;45348;-76
2022/03/01 04:35:30;;;;;;;;;62.25;50.25;;;;;;;;5140921;27;47467;-76
2022/03/01 04:37:55;;;;;;;;;61.00;50.50;;;;;;;;5142077;27;45323;-76
2022/03/01 04:40:21;;;;;;;;;62.75;50.00;;;;;;;;5142094;27;45372;-77
2022/03/01 04:42:46;;;;;;;;;60.50;49.25;;;;;;;;5142060;27;45349;-77
2022/03/01 04:45:11;;;;;;;;;63.00;49.50;;;;;;;;5141926;27;45421;-76
2022/03/01 04:47:37;;;;;;;;;62.25;51.50;;;;;;;;5140577;27;45575;-77
2022/03/01 04:50:03;;;;;;;;;61.00;49.75;;;;;;;;5142138;27;45339;-77
2022/03/01 04:52:28;;;;;;;;;60.00;48.50;;;;;;;;5140521;27;46106;-76
2022/03/01 04:54:54;;;;;;;;;59.25;48.50;;;;;;;;5140361;27;47271;-77
2022/03/01 04:57:19;;;;;;;;;62.75;50.25;;;;;;;;5140477;27;46041;-77
2022/03/01 04:59:44;;;;;;;;;59.75;49.50;;;;;;;;5140697;27;45303;-76
2022/03/01 05:02:09;;;;;;;;;60.00;50.25;;;;;;;;5140166;27;46970;-77
2022/03/01 05:04:34;;;;;;;;;64.00;48.25;;;;;;;;5141803;27;46044;-76
2022/03/01 05:07:00;;;;;;;;;56.75;47.25;;;;;;;;5141747;27;45318;-77
2022/03/01 05:09:25;;;;;;;;;61.00;51.25;;;;;;;;5140197;27;45508;-77
2022/03/01 05:11:51;;;;;;;;;60.50;50.00;;;;;;;;5140120;27;47182;-77
2022/03/01 05:14:16;;;;;;;;;59.00;48.75;;;;;;;;5141176;27;45578;-77
2022/03/01 05:16:41;;;;;;;;;58.75;48.25;;;;;;;;5141452;27;45276;-77
2022/03/01 05:19:09;;;;;;;;;57.75;47.75;;;;;;;;5124444;27;45261;-77
2022/03/01 05:21:34;;;;;;;;;60.50;50.50;;;;;;;;5119265;27;46099;-76
2022/03/01 05:23:59;;;;;;;;;57.50;46.25;;;;;;;;5109447;27;45356;-76
2022/03/01 05:26:25;;;;;;;;;61.75;49.75;;;;;;;;5098136;27;45734;-76
2022/03/01 05:28:50;;;;;;;;;60.50;51.00;;;;;;;;5099432;27;45483;-76
2022/03/01 05:31:15;;;;;;;;;64.50;54.00;;;;;;;;5099421;27;45498;-76
2022/03/01 05:33:40;;;;;;;;;68.75;53.25;;;;;;;;5099708;27;46419;-76
2022/03/01 05:36:06;;;;;;;;;64.50;54.00;;;;;;;;5098664;27;45261;-76
2022/03/01 05:38:31;;;;;;;;;65.50;52.75;;;;;;;;5099986;27;45397;-76
2022/03/01 05:40:56;;;;;;;;;59.75;50.25;;;;;;;;5099639;27;45493;-76
2022/03/01 05:43:21;;;;;;;;;60.25;48.75;;;;;;;;5099668;27;45362;-76
2022/03/01 05:45:46;;;;;;;;;63.75;53.00;;;;;;;;5102020;27;45352;-76
2022/03/01 05:48:12;;;;;;;;;65.50;53.25;;;;;;;;5103829;27;45281;-76
2022/03/01 05:50:37;;;;;;;;;66.75;53.50;;;;;;;;5103483;27;45336;-76
2022/03/01 05:53:02;;;;;;;;;67.75;54.50;;;;;;;;5101875;27;46757;-76
2022/03/01 05:55:27;;;;;;;;;69.50;55.75;;;;;;;;5107339;27;45348;-76
2022/03/01 05:57:53;;;;;;;;;66.00;54.00;;;;;;;;5124203;27;45360;-76
2022/03/01 06:00:19;;;;;;;;;70.50;55.00;;;;;;;;5114381;27;46005;-76
2022/03/01 06:02:45;;;;;;;;;70.75;55.25;;;;;;;;5103188;27;45399;-76
2022/03/01 06:05:11;;;;;;;;;68.00;56.75;;;;;;;;5103064;27;45345;-77
2022/03/01 06:07:37;;;;;;;;;61.25;51.50;;;;;;;;5103078;27;45220;-77
2022/03/01 06:10:02;;;;;;;;;66.00;54.00;;;;;;;;5103347;27;45313;-78
2022/03/01 06:12:27;;;;;;;;;68.00;56.25;;;;;;;;5117229;27;46120;-78
2022/03/01 06:14:52;;;;;;;;;68.00;55.25;;;;;;;;5104008;27;45432;-76
2022/03/01 06:17:18;;;;;;;;;63.25;51.50;;;;;;;;5105500;27;45765;-78
2022/03/01 06:19:43;;;;;;;;;79.75;63.00;;;;;;;;5143034;27;46268;-77
2022/03/01 06:22:08;;;;;;;;;70.50;56.75;;;;;;;;5144112;27;45653;-77
2022/03/01 06:24:34;;;;;;;;;70.50;55.75;;;;;;;;5144040;27;45324;-77
2022/03/01 06:27:00;;;;;;;;;70.00;55.00;;;;;;;;5143187;27;45289;-76
2022/03/01 06:29:25;;;;;;;;;67.25;55.00;;;;;;;;5142584;27;46902;-77
2022/03/01 06:31:50;;;;;;;;;65.25;54.25;;;;;;;;5142560;27;47064;-77
2022/03/01 06:34:16;;;;;;;;;64.50;53.50;;;;;;;;5142986;27;45596;-77
2022/03/01 06:36:41;;;;;;;;;67.00;52.25;;;;;;;;5142961;27;45394;-78
2022/03/01 06:39:06;;;;;;;;;63.75;51.25;;;;;;;;5144001;27;45238;-77
2022/03/01 06:41:31;;;;;;;;;65.25;51.75;;;;;;;;5142514;27;47903;-77
2022/03/01 06:43:56;;;;;;;;;58.25;49.00;;;;;;;;5109987;27;45501;-76
2022/03/01 06:46:22;;;;;;;;;63.25;49.00;;;;;;;;5112379;27;45468;-75
2022/03/01 06:48:47;;;;;;;;;65.50;51.75;;;;;;;;5113606;27;45340;-78
2022/03/01 06:51:13;;;;;;;;;60.00;50.00;;;;;;;;5123247;27;45298;-77
2022/03/01 06:53:39;;;;;;;;;69.50;55.25;;;;;;;;5123017;27;45309;-77
2022/03/01 06:56:04;;;;;;;;;65.00;54.00;;;;;;;;5110389;27;45437;-77
2022/03/01 06:58:30;;;;;;;;;69.50;55.75;;;;;;;;5102083;27;45552;-77
2022/03/01 07:00:56;;;;;;;;;68.00;52.25;;;;;;;;5102204;27;45633;-77
2022/03/01 07:03:21;;;;;;;;;63.50;50.50;;;;;;;;5100982;27;45300;-77
2022/03/01 07:05:46;;;;;;;;;73.25;57.75;;;;;;;;5100903;27;45257;-77
2022/03/01 07:08:13;;;;;;;;;73.75;58.00;;;;;;;;5102342;27;45214;-76
2022/03/01 07:10:38;;;;;;;;;69.25;55.25;;;;;;;;5102214;27;45466;-76
2022/03/01 07:13:04;;;;;;;;;69.50;57.25;;;;;;;;5102542;27;45956;-77
2022/03/01 07:15:29;;;;;;;;;73.00;56.25;;;;;;;;5100837;27;45418;-78
2022/03/01 07:17:54;;;;;;;;;65.75;52.25;;;;;;;;5113849;27;46128;-79
2022/03/01 07:20:19;;;;;;;;;72.00;56.25;;;;;;;;5143428;27;45552;-79
2022/03/01 07:22:45;;;;;;;;;67.25;52.00;;;;;;;;5134722;27;46001;-80
2022/03/01 07:25:10;;;;;;;;;74.50;58.25;;;;;;;;5100367;27;45456;-78
2022/03/01 07:27:35;;;;;;;;;69.75;56.75;;;;;;;;5100284;27;45821;-78
2022/03/01 07:30:01;;;;;;;;;73.50;57.50;;;;;;;;5101866;27;45448;-79
2022/03/01 07:32:26;;;;;;;;;74.25;58.75;;;;;;;;5103807;27;45368;-78
2022/03/01 07:34:51;;;;;;;;;68.00;55.00;;;;;;;;5104955;27;45376;-78
2022/03/01 07:37:17;;;;;;;;;65.50;54.25;;;;;;;;5114877;27;47198;-78
2022/03/01 07:39:42;;;;;;;;;72.75;57.00;;;;;;;;5104090;27;47162;-80
2022/03/01 07:42:08;;;;;;;;;75.25;58.25;;;;;;;;5099712;27;45484;-79
2022/03/01 07:44:37;;;;;;;;;73.00;56.25;;;;;;;;5101114;27;45408;-80
2022/03/01 07:47:06;;;;;;;;;66.25;54.50;;;;;;;;5099409;27;46197;-78
2022/03/01 07:49:32;;;;;;;;;69.25;56.25;;;;;;;;5099594;27;48034;-80
2022/03/01 07:51:57;;;;;;;;;52.75;42.00;;;;;;;;5117552;27;45509;-79
2022/03/01 07:54:22;;;;;;;;;69.00;54.25;;;;;;;;5120901;27;45413;-80
2022/03/01 07:56:47;;;;;;;;;67.75;55.75;;;;;;;;5122209;27;45307;-79
2022/03/01 07:59:12;;;;;;;;;71.25;56.00;;;;;;;;5122323;27;45387;-78
2022/03/01 08:01:38;;;;;;;;;67.00;55.50;;;;;;;;5120454;27;45533;-79
2022/03/01 08:04:03;;;;;;;;;72.50;56.00;;;;;;;;5120021;27;45444;-78
2022/03/01 08:06:28;;;;;;;;;69.75;54.75;;;;;;;;5120027;27;46796;-79
2022/03/01 08:08:53;;;;;;;;;81.25;64.25;;;;;;;;5119933;27;45574;-78
2022/03/01 08:11:19;;;;;;;;;75.00;58.50;;;;;;;;5121739;27;45296;-79
2022/03/01 08:13:44;;;;;;;;;70.50;56.25;;;;;;;;5122188;27;45250;-78
2022/03/01 08:16:09;;;;;;;;;66.50;54.00;;;;;;;;5121719;27;45186;-78
2022/03/01 08:18:35;;;;;;;;;68.50;55.75;;;;;;;;5133302;27;46581;-78
2022/03/01 08:21:00;;;;;;;;;65.00;49.75;;;;;;;;5138760;27;45886;-78
2022/03/01 08:23:25;;;;;;;;;64.00;52.25;;;;;;;;5140205;27;45295;-78
2022/03/01 08:25:51;;;;;;;;;63.25;51.25;;;;;;;;5138632;27;46099;-78
2022/03/01 08:28:16;;;;;;;;;65.75;53.75;;;;;;;;5140624;27;45427;-77
2022/03/01 08:30:41;;;;;;;;;63.75;50.25;;;;;;;;5140634;27;45304;-78
2022/03/01 08:33:07;;;;;;;;;55.75;45.00;;;;;;;;5141108;27;45654;-78
2022/03/01 08:35:32;;;;;;;;;63.75;49.00;;;;;;;;5141860;27;45609;-78
2022/03/01 08:38:02;;;;;;;;;57.25;47.25;;;;;;;;5140715;27;47151;-78
2022/03/01 08:40:28;;;;;;;;;50.25;41.00;;;;;;;;5140724;27;45383;-78
2022/03/01 08:42:54;;;;;;;;;43.00;35.75;;;;;;;;5142216;27;45352;-78
2022/03/01 08:45:19;;;;;;;;;45.25;38.50;;;;;;;;5140457;27;46905;-78
2022/03/01 08:47:44;;;;;;;;;44.50;35.00;;;;;;;;5142047;27;45463;-78
2022/03/01 08:50:10;;;;;;;;;38.00;33.00;;;;;;;;5142033;27;45203;-78
2022/03/01 08:52:35;;;;;;;;;39.50;35.00;;;;;;;;5140670;27;45254;-77
2022/03/01 08:55:01;;;;;;;;;47.50;38.25;;;;;;;;5141674;27;45839;-78
2022/03/01 08:57:26;;;;;;;;;49.00;41.00;;;;;;;;5141844;27;45579;-78
2022/03/01 08:59:51;;;;;;;;;43.50;37.75;;;;;;;;5140571;27;45976;-78
2022/03/01 09:02:18;;;;;;;;;44.50;38.00;;;;;;;;5140374;27;45839;-78
2022/03/01 09:04:43;;;;;;;;;41.75;36.50;;;;;;;;5141760;27;45448;-77
2022/03/01 09:07:09;;;;;;;;;42.75;36.00;;;;;;;;5140180;27;47456;-77
2022/03/01 09:09:34;;;;;;;;;45.50;36.50;;;;;;;;5141643;27;45265;-78
2022/03/01 09:11:59;;;;;;;;;40.75;34.50;;;;;;;;5141931;27;45315;-77
2022/03/01 09:14:24;;;;;;;;;44.75;38.25;;;;;;;;5141480;27;45334;-77
2022/03/01 09:16:50;;;;;;;;;49.75;41.75;;;;;;;;5141416;27;45451;-79
2022/03/01 09:19:16;;;;;;;;;40.50;34.50;;;;;;;;5121163;27;45358;-79
2022/03/01 09:21:41;;;;;;;;;52.00;40.25;;;;;;;;5119451;27;45336;-78
2022/03/01 09:24:06;;;;;;;;;41.00;35.25;;;;;;;;5120541;27;45521;-79
2022/03/01 09:26:32;;;;;;;;;51.00;40.50;;;;;;;;5119105;27;47148;-78
2022/03/01 09:28:57;;;;;;;;;39.00;35.00;;;;;;;;5119203;27;45928;-78
2022/03/01 09:31:23;;;;;;;;;43.00;36.75;;;;;;;;5120522;27;45457;-78
2022/03/01 09:33:49;;;;;;;;;39.75;35.25;;;;;;;;5120280;27;45423;-78
2022/03/01 09:36:14;;;;;;;;;39.75;36.50;;;;;;;;5120673;27;45495;-78
2022/03/01 09:38:40;;;;;;;;;43.75;37.50;;;;;;;;5120410;27;45202;-78
2022/03/01 09:41:05;;;;;;;;;47.25;39.75;;;;;;;;5119282;27;45362;-79
2022/03/01 09:43:31;;;;;;;;;36.00;32.75;;;;;;;;5120333;27;45381;-78
2022/03/01 09:45:56;;;;;;;;;39.50;36.00;;;;;;;;5118670;27;48000;-78
2022/03/01 09:48:21;;;;;;;;;44.50;37.25;;;;;;;;5119055;27;45238;-78
2022/03/01 09:50:47;;;;;;;;;41.75;35.50;;;;;;;;5119025;27;45364;-78
2022/03/01 09:53:13;;;;;;;;;51.25;40.50;;;;;;;;5118966;27;46991;-77
2022/03/01 09:55:39;;;;;;;;;51.25;42.50;;;;;;;;5118709;27;47972;-78
2022/03/01 09:58:05;;;;;;;;;48.75;38.75;;;;;;;;5120389;27;45431;-78
2022/03/01 10:00:30;;;;;;;;;46.50;37.50;;;;;;;;5119937;27;45349;-78
2022/03/01 10:02:56;;;;;;;;;41.75;36.25;;;;;;;;5118822;27;45473;-78
2022/03/01 10:05:35;;;;;;;;;50.00;39.50;;;;;;;;5120433;27;46838;-78
2022/03/01 10:08:10;;;;;;;;;44.50;39.25;;;;;;;;5120325;27;45195;-77
2022/03/01 10:10:40;;;;;;;;;45.25;37.50;;;;;;;;5118959;27;45304;-78
2022/03/01 10:13:06;;;;;;;;;44.75;36.50;;;;;;;;5118699;27;46425;-77
2022/03/01 10:15:34;;;;;;;;;46.50;40.25;;;;;;;;5118604;27;47478;-77
2022/03/01 10:18:08;;;;;;;;;47.00;38.00;;;;;;;;5127593;27;45384;-78
2022/03/01 10:20:33;;;;;;;;;46.75;40.00;;;;;;;;5139439;27;45342;-78
2022/03/01 10:22:58;;;;;;;;;47.25;39.75;;;;;;;;5140801;27;45324;-78
2022/03/01 10:25:25;;;;;;;;;49.25;40.25;;;;;;;;5139079;27;48063;-78
2022/03/01 10:27:52;;;;;;;;;49.50;40.75;;;;;;;;5139230;27;45412;-75
2022/03/01 10:30:25;;;;;;;;;43.25;38.25;;;;;;;;5139282;27;45395;-77
2022/03/01 10:32:51;;;;;;;;;45.25;39.00;;;;;;;;5143259;27;45171;-78
2022/03/01 10:35:16;;;;;;;;;42.75;37.25;;;;;;;;5142663;27;46992;-78
2022/03/01 10:37:41;;;;;;;;;44.75;37.50;;;;;;;;5144286;27;45806;-77
2022/03/01 10:40:20;;;;;;;;;44.25;37.50;;;;;;;;5144208;27;45149;-77
2022/03/01 10:42:59;;;;;;;;;48.50;41.25;;;;;;;;5144051;27;47349;-77
2022/03/01 10:45:45;;;;;;;;;43.50;37.50;;;;;;;;5143647;27;46383;-75
2022/03/01 10:48:12;;;;;;;;;48.00;38.50;;;;;;;;5142593;27;45306;-78
2022/03/01 10:50:39;;;;;;;;;41.75;36.00;;;;;;;;5144124;27;45400;-77
2022/03/01 10:53:06;;;;;;;;;42.75;36.00;;;;;;;;5142336;27;47127;-78
2022/03/01 10:55:32;;;;;;;;;41.75;36.00;;;;;;;;5143574;27;46076;-77
2022/03/01 10:58:08;;;;;;;;;43.50;37.75;;;;;;;;5143866;27;45371;-78
2022/03/01 11:00:35;;;;;;;;;47.00;38.25;;;;;;;;5142122;27;45361;-78
2022/03/01 11:03:01;;;;;;;;;44.25;38.00;;;;;;;;5142335;27;45692;-74
2022/03/01 11:05:29;;;;;;;;;44.00;35.75;;;;;;;;5142345;27;47354;-78
2022/03/01 11:07:56;;;;;;;;;43.75;36.00;;;;;;;;5142037;27;46150;-75
2022/03/01 11:10:22;;;;;;;;;36.50;33.75;;;;;;;;5143601;27;45314;-78
2022/03/01 11:12:48;;;;;;;;;44.33;36.00;;;;;;;;5143500;27;45604;-79
2022/03/01 11:15:32;;;;;;;;;39.50;32.50;;;;;;;;5141881;27;47532;-75
2022/03/01 11:17:57;;;;;;;;;40.50;32.75;;;;;;;;5134938;27;46094;-75
2022/03/01 11:20:24;;;;;;;;;44.00;37.25;;;;;;;;5122649;27;45215;-77
2022/03/01 11:22:56;;;;;;;;;42.00;35.00;;;;;;;;5122833;27;45451;-75
2022/03/01 11:25:23;;;;;;;;;31.00;28.33;;;;;;;;5120796;27;47328;-78
2022/03/01 11:27:49;;;;;;;;;43.50;35.00;;;;;;;;5122390;27;45413;-79
2022/03/01 11:30:15;;;;;;;;;38.25;33.50;;;;;;;;5122573;27;45502;-76
2022/03/01 11:32:42;;;;;;;;;39.25;34.25;;;;;;;;5121016;27;45896;-75
2022/03/01 11:35:15;;;;;;;;;41.25;34.00;;;;;;;;5120966;27;47346;-78
2022/03/01 11:37:42;;;;;;;;;39.33;33.33;;;;;;;;5122255;27;45274;-79
2022/03/01 11:40:08;;;;;;;;;31.33;29.33;;;;;;;;5120812;27;45297;-79
2022/03/01 11:42:33;;;;;;;;;33.00;31.00;;;;;;;;5120769;27;45921;-73
2022/03/01 11:45:06;;;;;;;;;32.33;30.00;;;;;;;;5102306;27;46369;-74
2022/03/01 11:47:32;;;;;;;;;25.00;23.33;;;;;;;;5101126;27;45361;-74
2022/03/01 11:49:57;;;;;;;;;33.00;31.00;;;;;;;;5100063;27;45343;-73
2022/03/01 11:52:24;;;;;;;;;32.67;31.00;;;;;;;;5122290;27;45340;-74
2022/03/01 11:54:50;;;;;;;;;31.67;29.00;;;;;;;;5121993;27;46481;-77
2022/03/01 11:57:17;;;;;;;;;30.67;29.00;;;;;;;;5121976;27;45346;-73
2022/03/01 11:59:44;;;;;;;;;29.00;26.00;;;;;;;;5120745;27;45575;-73
2022/03/01 12:02:10;;;;;;;;;32.33;28.33;;;;;;;;5120253;27;47268;-74
2022/03/01 12:04:42;;;;;;;;;29.67;28.67;;;;;;;;5120420;27;47048;-74
2022/03/01 12:07:09;;;;;;;;;31.33;29.33;;;;;;;;5120497;27;46294;-75
2022/03/01 12:09:35;;;;;;;;;33.67;30.33;;;;;;;;5116723;27;45690;-74
2022/03/01 12:12:08;;;;;;;;;34.67;30.33;;;;;;;;5102688;27;45251;-75
2022/03/01 12:14:34;;;;;;;;;34.33;30.67;;;;;;;;5100805;27;46188;-74
2022/03/01 12:17:02;;;;;;;;;36.50;32.00;;;;;;;;5101061;27;45336;-74
2022/03/01 12:19:32;;;;;;;;;38.00;31.00;;;;;;;;5123383;27;45385;-74
2022/03/01 12:21:58;;;;;;;;;35.67;32.33;;;;;;;;5100754;27;45381;-75
2022/03/01 12:24:25;;;;;;;;;34.00;30.00;;;;;;;;5104526;27;48163;-74
2022/03/01 12:26:52;;;;;;;;;33.67;30.67;;;;;;;;5102457;27;45294;-74
2022/03/01 12:29:19;;;;;;;;;26.00;21.00;;;;;;;;5099379;27;45387;-74
2022/03/01 12:31:54;;;;;;;;;36.33;31.67;;;;;;;;5099050;27;46284;-74
2022/03/01 12:34:22;;;;;;;;;26.67;26.67;;;;;;;;5100726;27;45472;-74
2022/03/01 12:36:48;;;;;;;;;31.33;26.33;;;;;;;;5099319;27;45368;-74
2022/03/01 12:39:14;;;;;;;;;28.00;26.00;;;;;;;;5100599;27;45346;-75
2022/03/01 12:41:40;;;;;;;;;29.00;27.67;;;;;;;;5100788;27;45569;-74
2022/03/01 12:44:07;;;;;;;;;31.33;28.67;;;;;;;;5099682;27;48201;-75
2022/03/01 12:46:33;;;;;;;;;27.67;27.67;;;;;;;;5119235;27;45340;-76
2022/03/01 12:48:59;;;;;;;;;28.67;27.67;;;;;;;;5119238;27;45363;-76
2022/03/01 12:51:25;;;;;;;;;27.33;25.00;;;;;;;;5120451;27;45407;-75
2022/03/01 12:53:51;;;;;;;;;23.00;20.33;;;;;;;;5120158;27;46376;-75
2022/03/01 12:56:20;;;;;;;;;28.33;22.33;;;;;;;;5112612;27;45328;-76
2022/03/01 12:58:46;;;;;;;;;25.33;23.67;;;;;;;;5100028;27;45286;-76
2022/03/01 13:01:11;;;;;;;;;26.67;23.00;;;;;;;;5102313;27;45642;-76
2022/03/01 13:03:36;;;;;;;;;25.00;22.33;;;;;;;;5108124;27;45393;-74
2022/03/01 13:06:03;;;;;;;;;22.33;21.67;;;;;;;;5120679;27;45337;-74
2022/03/01 13:08:30;;;;;;;;;24.00;23.00;;;;;;;;5121166;27;45335;-74
2022/03/01 13:10:55;;;;;;;;;20.33;20.00;;;;;;;;5119114;27;45912;-74
2022/03/01 13:13:20;;;;;;;;;22.00;20.67;;;;;;;;5113349;27;47622;-75
2022/03/01 13:15:46;;;;;;;;;20.00;18.50;;;;;;;;5108847;27;45408;-76
2022/03/01 13:18:11;;;;;;;;;24.33;23.33;;;;;;;;5113764;27;45344;-75
2022/03/01 13:20:36;;;;;;;;;21.67;20.33;;;;;;;;5108017;27;46110;-75
2022/03/01 13:23:09;;;;;;;;;21.33;19.67;;;;;;;;5110154;27;48197;-75
2022/03/01 13:25:35;;;;;;;;;23.67;20.67;;;;;;;;5104451;27;45430;-75
2022/03/01 13:28:00;;;;;;;;;20.33;17.00;;;;;;;;5100032;27;45714;-74
2022/03/01 13:30:27;;;;;;;;;22.00;21.00;;;;;;;;5098254;27;46429;-74
2022/03/01 13:33:04;;;;;;;;;22.00;20.00;;;;;;;;5114548;27;46234;-75
2022/03/01 13:35:29;;;;;;;;;24.00;23.67;;;;;;;;5106884;27;45373;-74
2022/03/01 13:38:02;;;;;;;;;22.00;22.00;;;;;;;;5106298;27;45281;-73
2022/03/01 13:40:28;;;;;;;;;24.67;22.67;;;;;;;;5110898;27;46948;-74
2022/03/01 13:43:03;;;;;;;;;26.33;25.33;;;;;;;;5108636;27;45584;-74
2022/03/01 13:45:30;;;;;;;;;27.00;25.00;;;;;;;;5096608;27;45425;-74
2022/03/01 13:48:06;;;;;;;;;24.33;21.67;;;;;;;;5099773;27;45195;-74
2022/03/01 13:50:31;;;;;;;;;26.00;26.00;;;;;;;;5098473;27;46143;-75
2022/03/01 13:52:57;;;;;;;;;31.33;28.00;;;;;;;;5098322;27;47409;-74
2022/03/01 13:55:24;;;;;;;;;26.67;26.67;;;;;;;;5112066;27;45372;-73
2022/03/01 13:57:52;;;;;;;;;28.33;27.67;;;;;;;;5118982;27;45286;-76
2022/03/01 14:00:20;;;;;;;;;28.33;27.33;;;;;;;;5119455;27;45377;-76
2022/03/01 14:02:57;;;;;;;;;30.00;28.33;;;;;;;;5119060;27;47636;-76
2022/03/01 14:05:22;;;;;;;;;32.67;29.33;;;;;;;;5119197;27;45950;-77
2022/03/01 14:08:01;;;;;;;;;33.67;28.67;;;;;;;;5124176;27;45879;-76
2022/03/01 14:10:28;;;;;;;;;25.33;25.00;;;;;;;;5122464;27;46541;-76